SBCTSBBI

Guest
Details From SBCT - Afonso Pena
To SBBI - Curitiba Bacacheri
Flight Number -
Tags Generated
Created
Modified
Stats Distance 8 nm / 15 km
Max Altitude 0 ft / 0 m
Waypoints 2
Social Downloads 2
Likes 0
Share VATSIM

Download

Looking for another format? Having issues loading an existing format? Contact us
Advertisement - Login to hide

Notes

Generated

Route

SBCT SBBI

ID Type Via Altitude Latitude Longitude Leg Dist Tot Dist Heading (true) Name
O SBCT APT - 0 ft / 0 m -25.52836˚ -49.18010˚ - 0 nm - -
O SBBI APT - 0 ft / 0 m -25.39926˚ -49.23469˚ 8 nm 8 nm 339° / 339° -

Altitude Profile

Advertisement - Login to hide

SBCT

Details ICAO SBCT (CWB)
Name Afonso Pena
Region Brazil
Timezone America/Sao_Paulo (UTC-2.0)
Stats Elevation 2,988 ft / 911 m (AMSL)
Location -25.528885° -49.173062°
Runways 2
Magnetic Variation 19.614° W

METAR

SBCT 171600Z 36013KT 9999 BKN040 FEW050TCU 30/17 Q1017

Decode

TAF

TAF SBCT 170900Z 1712/1812 32007KT 9999 SCT030 TX31/1716Z TN19/1808Z PROB30 1712/1715 35010KT FEW025 PROB30 1715/1722 8000 SHRA FEW035TCU PROB30 1722/1804 20008KT 4000 TSRA BKN010 FEW035CB BECMG 1804/1808 11008KT 7000 RA SCT007 OVC010 RMK PDN

Decode

Departure Runways

ID Width Length Bearing (true) Bearing (mag) Surface Threshold Offset Overrun Length
11 148 ft / 45 m 5,909 ft / 1,801 m 91.79° 111.40° Asphalt 0 ft / 0 m 0 ft / 0 m
15 148 ft / 45 m 7,290 ft / 2,222 m 134.76° 154.37° Asphalt 0 ft / 0 m 190 ft / 58 m
29 148 ft / 45 m 5,909 ft / 1,801 m 271.78° 291.39° Asphalt 0 ft / 0 m 0 ft / 0 m
33 148 ft / 45 m 7,290 ft / 2,222 m 314.75° 334.36° Asphalt 0 ft / 0 m 185 ft / 56 m

SBBI

Details ICAO SBBI (BFH)
Name Curitiba Bacacheri
Region Brazil
Timezone America/Sao_Paulo (UTC-2.0)
Stats Elevation 3,057 ft / 932 m (AMSL)
Location -25.405079° -49.232036°
Runways 1
Magnetic Variation 19.615° W

METAR

SBBI 171600Z 32007G17KT 9999 SCT030 30/17 Q1017

Decode

TAF

TAF SBBI 170900Z 1712/1724 32007KT 9999 SCT030 TX30/1716Z TN23/1724Z PROB30 1712/1715 35010KT FEW025 PROB30 1715/1722 8000 SHRA FEW035TCU BECMG 1722/1724 20008KT 4000 TSRA BKN010 FEW035CB RMK PDN

Decode

Destination Runways

ID Width Length Bearing (true) Bearing (mag) Surface Threshold Offset Overrun Length
18 98 ft / 30 m 4,591 ft / 1,399 m 157.57° 177.19° Asphalt 527 ft / 161 m 0 ft / 0 m
36 98 ft / 30 m 4,591 ft / 1,399 m 337.56° 357.18° Asphalt 350 ft / 107 m 0 ft / 0 m